createdAt,value
2019-05-09T00:00:08.203Z,10.25
2019-05-09T00:02:45.372Z,10.26
2019-05-09T00:05:22.299Z,10.25
2019-05-09T00:07:53.234Z,10.24
2019-05-09T00:10:38.540Z,10.23
2019-05-09T00:12:57.266Z,10.24
2019-05-09T00:15:29.508Z,10.25
2019-05-09T00:18:23.377Z,10.28
2019-05-09T00:21:06.329Z,10.28
2019-05-09T00:23:39.411Z,10.30
2019-05-09T00:26:15.570Z,10.30
2019-05-09T00:28:50.427Z,10.29
2019-05-09T00:31:41.202Z,10.32
2019-05-09T00:34:23.328Z,10.33
2019-05-09T00:36:53.959Z,10.35
2019-05-09T00:39:23.692Z,10.33
2019-05-09T00:41:53.968Z,10.33
2019-05-09T00:44:24.753Z,10.36
2019-05-09T00:47:07.601Z,10.38
2019-05-09T00:49:36.736Z,10.39
2019-05-09T00:52:05.965Z,10.39
2019-05-09T00:54:35.125Z,10.42
2019-05-09T00:57:04.295Z,10.43
2019-05-09T00:59:33.439Z,10.42
2019-05-09T01:02:03.940Z,10.39
2019-05-09T01:04:33.481Z,10.39
2019-05-09T01:07:03.510Z,10.40
2019-05-09T01:09:33.480Z,10.37
2019-05-09T01:12:03.832Z,10.35
2019-05-09T01:14:33.959Z,10.34
2019-05-09T01:17:04.245Z,10.32
2019-05-09T01:19:33.902Z,10.27
2019-05-09T01:22:03.832Z,10.25
2019-05-09T01:24:33.736Z,10.22
2019-05-09T01:27:03.795Z,10.19
2019-05-09T01:29:33.770Z,10.16
2019-05-09T01:32:04.267Z,10.13
2019-05-09T01:34:35.263Z,10.12
2019-05-09T01:37:05.567Z,10.11
2019-05-09T01:39:35.712Z,10.10
2019-05-09T01:42:05.867Z,10.05
2019-05-09T01:44:35.042Z,10.03
2019-05-09T01:47:04.578Z,10.01
2019-05-09T01:49:34.334Z,10.00
2019-05-09T01:52:03.505Z,9.98
2019-05-09T01:54:34.634Z,9.96
2019-05-09T01:57:03.784Z,9.95
2019-05-09T01:59:33.958Z,9.91
2019-05-09T02:02:08.217Z,9.87
2019-05-09T02:04:34.872Z,9.83
2019-05-09T02:07:06.694Z,9.80
2019-05-09T02:09:37.015Z,9.77
2019-05-09T02:12:09.226Z,9.74
2019-05-09T02:15:03.896Z,9.73
2019-05-09T02:17:58.207Z,9.71
2019-05-09T02:20:15.758Z,9.67
2019-05-09T02:22:50.263Z,9.66
2019-05-09T02:25:20.010Z,9.67
2019-05-09T02:27:56.414Z,9.66
2019-05-09T02:30:28.836Z,9.69
2019-05-09T02:33:04.835Z,9.69
2019-05-09T02:35:47.447Z,9.69
2019-05-09T02:38:13.936Z,9.69
2019-05-09T02:41:09.140Z,9.68
2019-05-09T02:43:39.064Z,9.66
2019-05-09T02:46:18.846Z,9.65
2019-05-09T02:48:52.656Z,9.65
2019-05-09T02:51:22.636Z,9.63
2019-05-09T02:53:58.509Z,9.61
2019-05-09T02:56:33.101Z,9.57
2019-05-09T02:59:12.270Z,9.53
2019-05-09T03:01:49.668Z,9.48
2019-05-09T03:04:21.183Z,9.45
2019-05-09T03:06:50.637Z,9.41
2019-05-09T03:09:19.818Z,9.33
2019-05-09T03:11:50.062Z,9.25
2019-05-09T03:14:19.742Z,9.21
2019-05-09T03:16:49.383Z,9.19
2019-05-09T03:19:21.689Z,9.16
2019-05-09T03:21:54.456Z,9.13
2019-05-09T03:24:28.842Z,9.09
2019-05-09T03:27:01.311Z,9.07
2019-05-09T03:29:48.792Z,9.03
2019-05-09T03:32:19.757Z,9.02
2019-05-09T03:34:50.568Z,9.02
2019-05-09T03:37:19.773Z,9.00
2019-05-09T03:39:48.940Z,9.01
2019-05-09T03:42:21.625Z,9.02
2019-05-09T03:44:48.982Z,9.03
2019-05-09T03:47:22.574Z,9.03
2019-05-09T03:50:11.817Z,9.04
2019-05-09T03:52:44.123Z,9.06
2019-05-09T03:55:17.898Z,9.05
2019-05-09T03:58:00.638Z,9.05
2019-05-09T04:00:29.822Z,9.06
2019-05-09T04:03:01.748Z,9.06
2019-05-09T04:05:34.261Z,9.06
2019-05-09T04:08:18.921Z,9.07
2019-05-09T04:10:54.072Z,9.09
2019-05-09T04:13:28.392Z,9.10
2019-05-09T04:16:00.992Z,9.12
2019-05-09T04:18:33.496Z,9.15
2019-05-09T04:21:04.068Z,9.20
2019-05-09T04:23:37.878Z,9.23
2019-05-09T04:26:08.909Z,9.25
2019-05-09T04:28:40.712Z,9.28
2019-05-09T04:31:14.544Z,9.27
2019-05-09T04:33:48.659Z,9.29
2019-05-09T04:36:19.709Z,9.29
2019-05-09T04:38:48.849Z,9.31
2019-05-09T04:41:23.694Z,9.34
2019-05-09T04:43:51.302Z,9.32
2019-05-09T04:46:24.108Z,9.35
2019-05-09T04:49:00.963Z,9.34
2019-05-09T04:51:25.499Z,9.38
2019-05-09T04:53:58.290Z,9.39
2019-05-09T04:56:28.369Z,9.40
2019-05-09T04:58:58.903Z,9.41
2019-05-09T05:01:47.713Z,9.43
2019-05-09T05:04:20.516Z,9.46
2019-05-09T05:06:58.516Z,9.47
2019-05-09T05:09:28.369Z,9.48
2019-05-09T05:11:59.841Z,9.53
2019-05-09T05:14:31.645Z,9.54
2019-05-09T05:17:07.718Z,9.56
2019-05-09T05:19:36.212Z,9.60
2019-05-09T05:22:07.811Z,9.62
2019-05-09T05:24:41.061Z,9.63
2019-05-09T05:27:12.395Z,9.66
2019-05-09T05:29:47.633Z,9.71
2019-05-09T05:32:24.158Z,9.73
2019-05-09T05:34:58.267Z,9.78
2019-05-09T05:37:31.691Z,9.82
2019-05-09T05:40:07.616Z,9.84
2019-05-09T05:42:39.017Z,9.86
2019-05-09T05:45:08.586Z,9.91
2019-05-09T05:47:48.697Z,9.96
2019-05-09T05:50:21.006Z,9.99
2019-05-09T05:52:54.199Z,9.99
2019-05-09T05:55:27.594Z,10.04
2019-05-09T05:58:03.980Z,10.07
2019-05-09T06:00:37.639Z,10.07
2019-05-09T06:03:12.131Z,10.06
2019-05-09T06:05:49.286Z,10.04
2019-05-09T06:08:22.200Z,10.05
2019-05-09T06:10:51.920Z,10.10
2019-05-09T06:13:24.236Z,10.20
2019-05-09T06:15:55.298Z,10.33
2019-05-09T06:18:27.623Z,10.46
2019-05-09T06:20:58.354Z,10.57
2019-05-09T06:23:30.969Z,10.70
2019-05-09T06:26:01.002Z,10.79
2019-05-09T06:28:30.177Z,10.79
2019-05-09T06:31:02.381Z,10.78
2019-05-09T06:33:34.080Z,10.83
2019-05-09T06:36:03.549Z,10.84
2019-05-09T06:38:32.712Z,10.84
2019-05-09T06:41:02.277Z,10.88
2019-05-09T06:43:33.439Z,10.96
2019-05-09T06:46:13.121Z,11.03
2019-05-09T06:48:43.965Z,11.10
2019-05-09T06:51:18.056Z,11.24
2019-05-09T06:53:48.712Z,11.45
2019-05-09T06:56:28.332Z,11.60
2019-05-09T06:58:58.406Z,11.75
2019-05-09T07:01:30.760Z,12.00
2019-05-09T07:04:03.990Z,12.17
2019-05-09T07:06:51.192Z,12.27
2019-05-09T07:09:28.023Z,12.38
2019-05-09T07:11:58.549Z,12.48
2019-05-09T07:14:41.264Z,12.48
2019-05-09T07:17:13.664Z,12.55
2019-05-09T07:19:44.552Z,12.65
2019-05-09T07:22:18.161Z,12.59
2019-05-09T07:25:06.004Z,12.53
2019-05-09T07:27:39.047Z,12.48
2019-05-09T07:30:12.189Z,12.50
2019-05-09T07:33:04.595Z,12.56
2019-05-09T07:35:34.456Z,12.66
2019-05-09T07:38:08.526Z,12.77
2019-05-09T07:40:39.098Z,12.87
2019-05-09T07:43:11.976Z,13.08
2019-05-09T07:45:44.304Z,13.35
2019-05-09T07:48:13.872Z,13.56
2019-05-09T07:50:43.494Z,13.80
2019-05-09T07:53:13.610Z,14.07
2019-05-09T07:55:44.260Z,14.30
2019-05-09T07:58:14.421Z,14.54
2019-05-09T08:00:44.283Z,14.77
2019-05-09T08:03:15.060Z,14.99
2019-05-09T08:05:47.678Z,15.15
2019-05-09T08:08:18.572Z,15.29
2019-05-09T08:10:48.510Z,15.41
2019-05-09T08:13:21.509Z,15.44
2019-05-09T08:15:50.434Z,15.56
2019-05-09T08:18:21.438Z,15.74
2019-05-09T08:20:52.463Z,15.79
2019-05-09T08:23:23.733Z,15.88
2019-05-09T08:25:54.307Z,15.94
2019-05-09T08:28:27.636Z,16.19
2019-05-09T08:30:59.248Z,16.39
2019-05-09T08:33:28.844Z,16.50
2019-05-09T08:35:58.762Z,16.88
2019-05-09T08:38:28.594Z,16.80
2019-05-09T08:41:09.005Z,17.12
2019-05-09T08:43:39.679Z,18.00
2019-05-09T08:46:09.509Z,17.45
2019-05-09T08:48:39.368Z,17.27
2019-05-09T08:51:18.069Z,17.57
2019-05-09T08:53:48.334Z,17.45
2019-05-09T08:56:17.990Z,17.66
2019-05-09T08:58:48.613Z,17.81
2019-05-09T09:01:29.582Z,17.87
2019-05-09T09:03:49.754Z,17.72
2019-05-09T09:06:18.939Z,17.69
2019-05-09T09:08:48.444Z,17.62
2019-05-09T09:11:18.714Z,17.53
2019-05-09T09:13:48.513Z,17.47
2019-05-09T09:16:21.540Z,17.28
2019-05-09T09:18:48.552Z,17.67
2019-05-09T09:21:18.490Z,17.47
2019-05-09T09:23:50.838Z,17.70
2019-05-09T09:26:20.139Z,17.67
2019-05-09T09:28:49.539Z,17.89
2019-05-09T09:31:19.114Z,17.88
2019-05-09T09:33:49.239Z,17.98
2019-05-09T09:36:18.382Z,18.11
2019-05-09T09:38:48.211Z,18.19
2019-05-09T09:41:18.297Z,18.10
2019-05-09T09:43:48.289Z,17.45
2019-05-09T09:46:18.370Z,17.72
2019-05-09T09:48:48.275Z,17.97
2019-05-09T09:51:18.829Z,18.12
2019-05-09T09:53:49.142Z,18.13
2019-05-09T09:56:22.445Z,18.23
2019-05-09T09:58:54.310Z,18.15
2019-05-09T10:01:25.386Z,18.05
2019-05-09T10:03:58.131Z,18.23
2019-05-09T10:06:28.461Z,18.01
2019-05-09T10:08:58.110Z,18.07
2019-05-09T10:11:28.702Z,18.28
2019-05-09T10:16:43.405Z,18.21
2019-05-09T10:19:18.535Z,17.87
2019-05-09T10:22:01.419Z,18.21
2019-05-09T10:24:30.855Z,18.54
2019-05-09T10:27:08.811Z,18.23
2019-05-09T10:29:38.856Z,18.17
2019-05-09T10:32:12.267Z,18.08
2019-05-09T10:34:42.444Z,17.91
2019-05-09T10:37:14.373Z,17.73
2019-05-09T10:39:45.752Z,17.98
2019-05-09T10:42:31.605Z,17.99
2019-05-09T10:45:03.696Z,17.72
2019-05-09T10:47:34.870Z,17.93
2019-05-09T10:50:08.357Z,17.74
2019-05-09T10:52:37.795Z,17.82
2019-05-09T10:55:09.094Z,18.07
2019-05-09T10:57:42.522Z,18.17
2019-05-09T11:00:10.143Z,18.25
2019-05-09T11:02:40.006Z,18.53
2019-05-09T11:05:09.244Z,18.74
2019-05-09T11:07:38.583Z,18.82
2019-05-09T11:10:23.650Z,18.90
2019-05-09T11:12:38.983Z,19.01
2019-05-09T11:15:09.262Z,19.15
2019-05-09T11:17:39.087Z,19.21
2019-05-09T11:20:08.726Z,19.20
2019-05-09T11:22:38.700Z,19.40
2019-05-09T11:25:08.914Z,19.30
2019-05-09T11:27:38.907Z,19.25
2019-05-09T11:30:08.562Z,19.33
2019-05-09T11:32:38.577Z,19.31
2019-05-09T11:35:09.127Z,19.23
2019-05-09T11:37:38.557Z,19.47
2019-05-09T11:40:08.282Z,19.55
2019-05-09T11:42:38.093Z,19.56
2019-05-09T11:45:07.960Z,19.21
2019-05-09T11:47:45.592Z,19.44
2019-05-09T11:50:09.010Z,19.61
2019-05-09T11:52:38.659Z,19.71
2019-05-09T11:55:27.238Z,19.80
2019-05-09T11:57:39.173Z,19.85
2019-05-09T12:00:08.405Z,19.56
2019-05-09T12:02:38.486Z,19.76
2019-05-09T12:05:08.814Z,20.01
2019-05-09T12:07:38.932Z,20.04
2019-05-09T12:10:08.428Z,19.67
2019-05-09T12:12:39.062Z,19.67
2019-05-09T12:15:09.336Z,19.26
2019-05-09T12:17:53.002Z,19.19
2019-05-09T12:20:13.398Z,19.50
2019-05-09T12:22:41.022Z,19.73
2019-05-09T12:25:10.370Z,19.71
2019-05-09T12:27:40.066Z,19.81
2019-05-09T12:30:09.838Z,20.06
2019-05-09T12:32:39.161Z,19.91
2019-05-09T12:35:11.055Z,19.83
2019-05-09T12:37:40.536Z,20.08
2019-05-09T12:40:11.418Z,19.61
2019-05-09T12:42:40.814Z,19.55
2019-05-09T12:45:10.856Z,19.44
2019-05-09T12:47:40.241Z,19.22
2019-05-09T12:50:10.642Z,19.01
2019-05-09T12:52:39.948Z,18.82
2019-05-09T12:55:12.806Z,18.62
2019-05-09T12:57:42.478Z,18.47
2019-05-09T13:00:11.982Z,18.39
2019-05-09T13:02:42.430Z,18.33
2019-05-09T13:05:12.440Z,18.24
2019-05-09T13:07:42.542Z,18.22
2019-05-09T13:10:12.067Z,18.22
2019-05-09T13:12:41.508Z,18.20
2019-05-09T13:15:10.837Z,18.18
2019-05-09T13:17:47.889Z,18.15
2019-05-09T13:20:18.084Z,18.09
2019-05-09T13:22:47.919Z,18.02
2019-05-09T13:25:19.239Z,17.98
2019-05-09T13:27:52.446Z,17.93
2019-05-09T13:30:20.041Z,17.91
2019-05-09T13:32:49.265Z,17.96
2019-05-09T13:35:19.845Z,18.01
2019-05-09T13:37:50.181Z,18.09
2019-05-09T13:40:20.774Z,18.19
2019-05-09T13:42:50.397Z,18.33
2019-05-09T13:45:19.354Z,18.48
2019-05-09T13:47:49.699Z,18.57
2019-05-09T13:50:21.551Z,18.46
2019-05-09T13:52:50.825Z,18.36
2019-05-09T13:55:19.979Z,18.30
2019-05-09T13:57:49.507Z,18.24
2019-05-09T14:00:19.080Z,18.19
2019-05-09T14:02:48.756Z,18.17
2019-05-09T14:05:20.656Z,18.13
2019-05-09T14:07:54.361Z,18.13
2019-05-09T14:10:20.949Z,18.11
2019-05-09T14:13:05.849Z,18.09
2019-05-09T14:15:22.068Z,18.02
2019-05-09T14:17:53.900Z,17.89
2019-05-09T14:20:29.448Z,17.87
2019-05-09T14:22:59.396Z,17.86
2019-05-09T14:25:29.169Z,17.84
2019-05-09T14:28:01.706Z,17.77
2019-05-09T14:30:35.211Z,17.61
2019-05-09T14:33:04.630Z,17.48
2019-05-09T14:35:38.726Z,17.18
2019-05-09T14:38:09.051Z,16.76
2019-05-09T14:40:40.105Z,16.31
2019-05-09T14:43:11.867Z,15.67
2019-05-09T14:45:41.118Z,14.97
2019-05-09T14:48:12.260Z,14.38
2019-05-09T14:50:41.487Z,13.97
2019-05-09T14:53:11.834Z,13.73
2019-05-09T14:55:43.263Z,13.54
2019-05-09T14:58:12.292Z,13.39
2019-05-09T15:00:41.609Z,13.35
2019-05-09T15:03:10.766Z,13.39
2019-05-09T15:05:41.632Z,13.39
2019-05-09T15:08:11.613Z,13.41
2019-05-09T15:10:43.003Z,13.46
2019-05-09T15:13:12.556Z,13.64
2019-05-09T15:15:41.902Z,13.86
2019-05-09T15:18:14.852Z,14.07
2019-05-09T15:20:44.182Z,14.50
2019-05-09T15:23:13.324Z,14.99
2019-05-09T15:26:02.357Z,15.21
2019-05-09T15:28:30.768Z,15.52
2019-05-09T15:30:59.935Z,15.84
2019-05-09T15:33:29.108Z,16.18
2019-05-09T15:35:59.235Z,16.51
2019-05-09T15:38:29.140Z,16.55
2019-05-09T15:40:58.919Z,16.57
2019-05-09T15:43:28.055Z,16.52
2019-05-09T15:45:59.792Z,16.34
2019-05-09T15:48:29.020Z,16.29
2019-05-09T15:50:58.411Z,16.22
2019-05-09T15:53:27.941Z,16.08
2019-05-09T15:55:58.815Z,15.97
2019-05-09T15:58:28.708Z,15.92
2019-05-09T16:00:58.898Z,15.83
2019-05-09T16:03:28.383Z,15.69
2019-05-09T16:05:58.403Z,15.53
2019-05-09T16:08:28.789Z,15.25
2019-05-09T16:10:58.249Z,15.02
2019-05-09T16:13:28.436Z,15.06
2019-05-09T16:15:57.787Z,15.19
2019-05-09T16:18:28.811Z,15.38
2019-05-09T16:20:58.162Z,15.46
2019-05-09T16:23:29.073Z,15.53
2019-05-09T16:25:58.733Z,15.58
2019-05-09T16:28:27.272Z,15.62
2019-05-09T16:30:58.584Z,15.51
2019-05-09T16:33:27.981Z,15.37
2019-05-09T16:35:57.328Z,15.29
2019-05-09T16:38:41.306Z,15.24
2019-05-09T16:40:58.235Z,15.29
2019-05-09T16:43:27.887Z,15.22
2019-05-09T16:45:58.123Z,15.32
2019-05-09T16:48:27.740Z,15.20
2019-05-09T16:51:01.350Z,15.29
2019-05-09T16:53:27.947Z,15.45
2019-05-09T16:55:57.807Z,15.36
2019-05-09T16:58:27.519Z,15.28
2019-05-09T17:00:56.708Z,15.24
2019-05-09T17:03:28.229Z,15.20
2019-05-09T17:05:58.280Z,15.22
2019-05-09T17:08:28.435Z,15.34
2019-05-09T17:10:58.649Z,15.46
2019-05-09T17:13:29.035Z,15.55
2019-05-09T17:15:58.621Z,15.58
2019-05-09T17:18:28.628Z,15.38
2019-05-09T17:23:49.138Z,15.21
2019-05-09T17:26:18.764Z,15.14
2019-05-09T17:28:48.704Z,15.06
2019-05-09T17:31:19.541Z,15.07
2019-05-09T17:33:50.864Z,15.09
2019-05-09T17:36:20.244Z,15.15
2019-05-09T17:38:51.178Z,15.16
2019-05-09T17:41:20.467Z,15.13
2019-05-09T17:43:49.909Z,15.09
2019-05-09T17:46:19.259Z,15.01
2019-05-09T17:48:48.502Z,14.91
2019-05-09T17:51:32.349Z,14.85
2019-05-09T17:53:51.866Z,14.85
2019-05-09T17:56:19.597Z,14.85
2019-05-09T17:58:48.897Z,14.89
2019-05-09T18:01:18.209Z,14.91
2019-05-09T18:06:38.472Z,14.96
2019-05-09T18:09:08.631Z,15.01
2019-05-09T18:11:37.977Z,14.99
2019-05-09T18:14:08.186Z,15.00
2019-05-09T18:16:38.938Z,14.96
2019-05-09T18:19:08.885Z,14.95
2019-05-09T18:21:49.887Z,14.89
2019-05-09T18:24:09.140Z,14.78
2019-05-09T18:26:38.483Z,14.66
2019-05-09T18:29:07.979Z,14.52
2019-05-09T18:31:41.665Z,14.47
2019-05-09T18:34:10.898Z,14.42
2019-05-09T18:36:40.095Z,14.37
2019-05-09T18:39:09.272Z,14.30
2019-05-09T18:41:38.473Z,14.26
2019-05-09T18:44:07.709Z,14.21
2019-05-09T18:46:36.946Z,14.18
2019-05-09T18:49:06.118Z,14.15
2019-05-09T18:51:35.304Z,14.10
2019-05-09T18:54:04.493Z,14.08
2019-05-09T18:56:33.665Z,14.06
2019-05-09T18:59:05.793Z,14.03
2019-05-09T19:01:35.205Z,14.00
2019-05-09T19:04:04.386Z,13.98
2019-05-09T19:06:33.586Z,13.96
2019-05-09T19:09:04.308Z,13.92
2019-05-09T19:11:33.777Z,13.90
2019-05-09T19:14:04.702Z,13.86
2019-05-09T19:16:41.474Z,13.80
2019-05-09T19:19:27.341Z,13.78
2019-05-09T19:22:04.357Z,13.77
2019-05-09T19:24:30.046Z,13.74
2019-05-09T19:26:59.544Z,13.70
2019-05-09T19:29:28.772Z,13.62
2019-05-09T19:31:57.924Z,13.53
2019-05-09T19:34:27.199Z,13.46
2019-05-09T19:36:56.365Z,13.37
2019-05-09T19:39:26.470Z,13.31
2019-05-09T19:41:55.659Z,13.26
2019-05-09T19:44:25.849Z,13.20
2019-05-09T19:46:55.014Z,13.16
2019-05-09T19:49:24.347Z,13.12
2019-05-09T19:51:53.808Z,13.08
2019-05-09T19:54:23.057Z,13.06
2019-05-09T19:56:52.684Z,13.02
2019-05-09T19:59:21.860Z,12.95
2019-05-09T20:01:51.169Z,12.91
2019-05-09T20:04:20.345Z,12.90
2019-05-09T20:06:49.887Z,12.85
2019-05-09T20:09:20.831Z,12.75
2019-05-09T20:11:51.667Z,12.69
2019-05-09T20:14:28.340Z,12.61
2019-05-09T20:16:57.905Z,12.51
2019-05-09T20:19:27.071Z,12.47
2019-05-09T20:21:56.360Z,12.46
2019-05-09T20:24:25.806Z,12.46
2019-05-09T20:26:55.218Z,12.48
2019-05-09T20:29:24.523Z,12.50
2019-05-09T20:31:53.673Z,12.48
2019-05-09T20:34:22.867Z,12.51
2019-05-09T20:36:52.048Z,12.50
2019-05-09T20:39:21.485Z,12.46
2019-05-09T20:41:50.937Z,12.40
2019-05-09T20:44:20.921Z,12.37
2019-05-09T20:46:50.227Z,12.35
2019-05-09T20:49:20.012Z,12.34
2019-05-09T20:51:48.628Z,12.29
2019-05-09T20:54:21.004Z,12.30
2019-05-09T20:56:49.173Z,12.31
2019-05-09T20:59:18.533Z,12.32
2019-05-09T21:01:49.373Z,12.32
2019-05-09T21:04:18.884Z,12.31
2019-05-09T21:06:48.344Z,12.29
2019-05-09T21:09:17.719Z,12.25
2019-05-09T21:11:47.381Z,12.24
2019-05-09T21:14:17.872Z,12.24
2019-05-09T21:16:47.273Z,12.25
2019-05-09T21:19:16.708Z,12.21
2019-05-09T21:21:46.254Z,12.19
2019-05-09T21:24:18.633Z,12.16
2019-05-09T21:26:49.614Z,12.16
2019-05-09T21:29:20.250Z,12.13
2019-05-09T21:31:49.718Z,12.14
2019-05-09T21:34:20.168Z,12.14
2019-05-09T21:36:49.685Z,12.16
2019-05-09T21:39:20.551Z,12.18
2019-05-09T21:41:49.871Z,12.20
2019-05-09T21:44:19.067Z,12.23
2019-05-09T21:46:50.342Z,12.19
2019-05-09T21:49:19.546Z,12.11
2019-05-09T21:51:48.762Z,12.04
2019-05-09T21:54:18.473Z,11.98
2019-05-09T21:56:47.152Z,11.95
2019-05-09T21:59:16.411Z,11.93
2019-05-09T22:01:46.289Z,11.95
2019-05-09T22:04:16.231Z,11.96
2019-05-09T22:06:45.599Z,12.00
2019-05-09T22:09:15.071Z,12.01
2019-05-09T22:11:44.376Z,12.04
2019-05-09T22:14:13.591Z,12.04
2019-05-09T22:16:43.682Z,12.03
2019-05-09T22:19:14.517Z,12.02
2019-05-09T22:21:43.716Z,12.00
2019-05-09T22:24:13.030Z,11.98
2019-05-09T22:26:42.541Z,11.95
2019-05-09T22:29:12.931Z,11.91
2019-05-09T22:31:42.469Z,11.85
2019-05-09T22:34:12.766Z,11.80
2019-05-09T22:36:41.919Z,11.81
2019-05-09T22:39:11.290Z,11.84
2019-05-09T22:41:40.580Z,11.88
2019-05-09T22:44:11.487Z,11.92
2019-05-09T22:46:40.779Z,11.91
2019-05-09T22:49:10.014Z,11.89
2019-05-09T22:51:39.568Z,11.88
2019-05-09T22:54:12.728Z,11.88
2019-05-09T22:56:39.823Z,11.85
2019-05-09T22:59:09.583Z,11.87
2019-05-09T23:01:38.265Z,11.90
2019-05-09T23:04:07.554Z,11.93
2019-05-09T23:06:36.783Z,11.97
2019-05-09T23:09:07.146Z,12.00
2019-05-09T23:11:36.388Z,12.00
2019-05-09T23:14:05.604Z,12.01
2019-05-09T23:16:36.613Z,12.02
2019-05-09T23:19:06.092Z,12.02
2019-05-09T23:21:35.389Z,11.99
2019-05-09T23:24:10.426Z,11.98
2019-05-09T23:26:39.932Z,11.95
2019-05-09T23:29:09.162Z,11.93
2019-05-09T23:31:42.810Z,11.92
2019-05-09T23:34:13.459Z,11.89
2019-05-09T23:36:42.722Z,11.86
2019-05-09T23:39:13.855Z,11.82
2019-05-09T23:41:45.064Z,11.78
2019-05-09T23:44:16.434Z,11.74
2019-05-09T23:46:45.812Z,11.71
2019-05-09T23:49:15.002Z,11.69
2019-05-09T23:51:49.224Z,11.65
2019-05-09T23:54:47.477Z,11.59
2019-05-09T23:57:28.455Z,11.55
